Rothschild, WI (54474)

9:26 PM CDT on August 27, 2016 (GMT -0500)
APRSWXNET | | Change Station

Elev 1164 ft 44.86 °N, 89.68 °W | Updated 26 minutes ago

Overcast
Overcast
63 °F
Feels Like 63 °F
N
0
Wind Variable Wind from SW
Gusts 0.0 mph

Today
High -- | Low -- °F
--% Chance of Precip.
Yesterday
High -- | Low -- °F
Precip. -- in
Pressure 30.07 in
Visibility 8.0 miles
Clouds Mostly Cloudy 700 ft
Overcast 1100 ft
Dew Point 62 °F
Humidity 97%
Rainfall in
Snow Depth Not available.
6:15 AM 7:43 PM
Waning Crescent, 19% visible
METAR KAUW 280154Z AUTO 18006KT 8SM BKN007 OVC011 17/16 A3006 RMK AO2 CIG 006V010 SLP183 T01720161
Pressure 30.07 in
Visibility 8.0 miles
Clouds Mostly Cloudy 700 ft
Overcast 1100 ft
Dew Point 62 °F
Humidity 97%
Rainfall in
Snow Depth Not available.
6:15 AM 7:43 PM
Waning Crescent, 19% visible
METAR KAUW 280154Z AUTO 18006KT 8SM BKN007 OVC011 17/16 A3006 RMK AO2 CIG 006V010 SLP183 T01720161

10-Day Weather Forecast

Almanac

Astronomy

Aug. 27, 2016 Rise Set
Actual Time
Civil Twilight
Nautical Twilight
Astronomical Twilight
Moon
Length of Visible Light
Length of Day
Tomorrow will be .
, % of the Moon is Illuminated

Today's Extremes

State Highs State Lows

Community

WunderPhotos

Upload Photos

1,935,496 photos uploaded!

WunderBlog® & News

Nearby

Air Quality

  Air Quality AQ Index Pollutant
Not available.

Snow Depth

Station Depth Elevation

Earthquake Activity

City Distance Mag. Time & Date
Minimum magnitude displayed is 2.5.

Coastal Water Temperatures

Place Temperature

Stations

Nearby Weather Stations

Station Location Temp. Windchill Dew Point Humidity Wind Precip. Elev Updated Type
                   

Watches & Warnings

There are currently no watches in effect.